sensor_id;sensor_type;location;lat;lon;timestamp;pressure;altitude;pressure_sealevel;temperature;humidity
20228;BME280;12195;55.790;37.572;2023-03-16T00:01:52;99400.89;;;5.67;67.78
20228;BME280;12195;55.790;37.572;2023-03-16T00:04:24;99392.30;;;5.65;67.79
20228;BME280;12195;55.790;37.572;2023-03-16T00:06:57;99388.84;;;5.64;67.83
20228;BME280;12195;55.790;37.572;2023-03-16T00:09:29;99368.87;;;5.65;67.79
20228;BME280;12195;55.790;37.572;2023-03-16T00:12:01;99379.17;;;5.68;67.55
20228;BME280;12195;55.790;37.572;2023-03-16T00:14:34;99378.37;;;5.66;67.85
20228;BME280;12195;55.790;37.572;2023-03-16T00:17:06;99383.75;;;5.61;67.95
20228;BME280;12195;55.790;37.572;2023-03-16T00:19:38;99372.82;;;5.53;68.26
20228;BME280;12195;55.790;37.572;2023-03-16T00:22:13;99364.52;;;5.44;68.73
20228;BME280;12195;55.790;37.572;2023-03-16T00:24:46;99364.74;;;5.38;69.32
20228;BME280;12195;55.790;37.572;2023-03-16T00:27:19;99357.14;;;5.33;70.12
20228;BME280;12195;55.790;37.572;2023-03-16T00:29:53;99364.20;;;5.30;70.32
20228;BME280;12195;55.790;37.572;2023-03-16T00:32:30;99358.16;;;5.29;70.72
20228;BME280;12195;55.790;37.572;2023-03-16T00:35:04;99347.81;;;5.28;71.00
20228;BME280;12195;55.790;37.572;2023-03-16T00:37:38;99361.65;;;5.28;71.35
20228;BME280;12195;55.790;37.572;2023-03-16T00:40:13;99358.22;;;5.28;71.80
20228;BME280;12195;55.790;37.572;2023-03-16T00:42:46;99363.31;;;5.31;71.79
20228;BME280;12195;55.790;37.572;2023-03-16T00:45:18;99356.27;;;5.33;71.90
20228;BME280;12195;55.790;37.572;2023-03-16T00:47:51;99361.37;;;5.36;71.66
20228;BME280;12195;55.790;37.572;2023-03-16T00:50:23;99362.14;;;5.38;71.53
20228;BME280;12195;55.790;37.572;2023-03-16T00:52:57;99363.83;;;5.39;71.48
20228;BME280;12195;55.790;37.572;2023-03-16T00:55:29;99361.11;;;5.42;71.30
20228;BME280;12195;55.790;37.572;2023-03-16T00:58:01;99366.27;;;5.43;71.11
20228;BME280;12195;55.790;37.572;2023-03-16T01:00:34;99371.41;;;5.45;71.25
20228;BME280;12195;55.790;37.572;2023-03-16T01:03:06;99367.89;;;5.46;71.15
20228;BME280;12195;55.790;37.572;2023-03-16T01:05:42;99367.95;;;5.44;71.12
20228;BME280;12195;55.790;37.572;2023-03-16T01:08:14;99367.18;;;5.42;71.50
20228;BME280;12195;55.790;37.572;2023-03-16T01:10:46;99371.47;;;5.43;71.10
20228;BME280;12195;55.790;37.572;2023-03-16T01:13:18;99367.18;;;5.42;71.47
20228;BME280;12195;55.790;37.572;2023-03-16T01:15:51;99373.22;;;5.43;71.61
20228;BME280;12195;55.790;37.572;2023-03-16T01:18:24;99364.58;;;5.42;71.84
20228;BME280;12195;55.790;37.572;2023-03-16T01:20:55;99367.18;;;5.42;71.85
20228;BME280;12195;55.790;37.572;2023-03-16T01:23:28;99369.73;;;5.44;71.65
20228;BME280;12195;55.790;37.572;2023-03-16T01:26:01;99374.94;;;5.44;71.81
20228;BME280;12195;55.790;37.572;2023-03-16T01:28:33;99368.00;;;5.43;71.61
20228;BME280;12195;55.790;37.572;2023-03-16T01:31:07;99368.87;;;5.43;71.55
20228;BME280;12195;55.790;37.572;2023-03-16T01:33:41;99380.14;;;5.44;71.85
20228;BME280;12195;55.790;37.572;2023-03-16T01:36:17;99373.16;;;5.44;71.50
20228;BME280;12195;55.790;37.572;2023-03-16T01:38:51;99381.83;;;5.45;71.57
20228;BME280;12195;55.790;37.572;2023-03-16T01:41:25;99377.48;;;5.45;71.55
20228;BME280;12195;55.790;37.572;2023-03-16T01:43:57;99374.07;;;5.43;71.50
20228;BME280;12195;55.790;37.572;2023-03-16T01:46:31;99375.05;;;5.41;71.37
20228;BME280;12195;55.790;37.572;2023-03-16T01:49:18;99380.25;;;5.41;71.26
20228;BME280;12195;55.790;37.572;2023-03-16T01:51:53;99374.33;;;5.37;71.44
20228;BME280;12195;55.790;37.572;2023-03-16T01:54:49;99364.74;;;5.38;71.48
20228;BME280;12195;55.790;37.572;2023-03-16T01:57:27;99370.86;;;5.37;71.64
20228;BME280;12195;55.790;37.572;2023-03-16T02:00:09;99383.72;;;5.41;70.69
20228;BME280;12195;55.790;37.572;2023-03-16T02:02:51;99372.80;;;5.32;71.17
20228;BME280;12195;55.790;37.572;2023-03-16T02:05:28;99375.47;;;5.30;71.30
20228;BME280;12195;55.790;37.572;2023-03-16T02:08:01;99378.13;;;5.29;71.61
20228;BME280;12195;55.790;37.572;2023-03-16T02:10:34;99373.78;;;5.29;71.37
20228;BME280;12195;55.790;37.572;2023-03-16T02:13:07;99372.05;;;5.28;71.72
20228;BME280;12195;55.790;37.572;2023-03-16T02:15:39;99373.83;;;5.28;71.64
20228;BME280;12195;55.790;37.572;2023-03-16T02:18:13;99371.28;;;5.26;71.65
20228;BME280;12195;55.790;37.572;2023-03-16T02:20:56;99375.63;;;5.26;71.80
20228;BME280;12195;55.790;37.572;2023-03-16T02:23:29;99384.24;;;5.28;72.00
20228;BME280;12195;55.790;37.572;2023-03-16T02:31:41;99378.92;;;5.31;71.98
20228;BME280;12195;55.790;37.572;2023-03-16T02:34:15;99378.78;;;5.34;72.01
20228;BME280;12195;55.790;37.572;2023-03-16T02:36:49;99374.50;;;5.33;71.91
20228;BME280;12195;55.790;37.572;2023-03-16T02:39:24;99366.58;;;5.36;71.78
20228;BME280;12195;55.790;37.572;2023-03-16T02:41:56;99369.18;;;5.36;71.74
20228;BME280;12195;55.790;37.572;2023-03-16T02:44:31;99376.84;;;5.39;71.86
20228;BME280;12195;55.790;37.572;2023-03-16T02:47:10;99381.94;;;5.42;71.63
20228;BME280;12195;55.790;37.572;2023-03-16T02:49:43;99372.39;;;5.42;71.64
20228;BME280;12195;55.790;37.572;2023-03-16T02:52:17;99361.11;;;5.42;71.68
20228;BME280;12195;55.790;37.572;2023-03-16T02:54:49;99361.86;;;5.45;71.56
20228;BME280;12195;55.790;37.572;2023-03-16T02:57:21;99355.80;;;5.45;71.70
20228;BME280;12195;55.790;37.572;2023-03-16T02:59:55;99354.05;;;5.45;71.74
20228;BME280;12195;55.790;37.572;2023-03-16T03:02:28;99363.44;;;5.49;71.51
20228;BME280;12195;55.790;37.572;2023-03-16T03:05:00;99362.58;;;5.49;71.69
20228;BME280;12195;55.790;37.572;2023-03-16T03:07:32;99353.79;;;5.51;71.75
20228;BME280;12195;55.790;37.572;2023-03-16T03:10:06;99361.55;;;5.53;71.51
20228;BME280;12195;55.790;37.572;2023-03-16T03:12:40;99367.52;;;5.55;71.50
20228;BME280;12195;55.790;37.572;2023-03-16T03:15:12;99374.30;;;5.59;71.36
20228;BME280;12195;55.790;37.572;2023-03-16T03:17:46;99340.06;;;5.48;71.26
20228;BME280;12195;55.790;37.572;2023-03-16T03:20:18;99340.06;;;5.48;71.26
20228;BME280;12195;55.790;37.572;2023-03-16T03:22:51;99358.73;;;5.57;71.22
20228;BME280;12195;55.790;37.572;2023-03-16T03:25:23;99344.78;;;5.60;71.26
20228;BME280;12195;55.790;37.572;2023-03-16T03:27:56;99341.26;;;5.61;71.26
20228;BME280;12195;55.790;37.572;2023-03-16T03:30:30;99336.11;;;5.59;71.49
20228;BME280;12195;55.790;37.572;2023-03-16T03:33:02;99342.08;;;5.61;71.55
20228;BME280;12195;55.790;37.572;2023-03-16T03:35:35;99341.20;;;5.62;71.20
20228;BME280;12195;55.790;37.572;2023-03-16T03:38:07;99344.63;;;5.63;71.39
20228;BME280;12195;55.790;37.572;2023-03-16T03:40:39;99342.23;;;5.58;71.44
20228;BME280;12195;55.790;37.572;2023-03-16T03:43:11;99341.64;;;5.52;71.74
20228;BME280;12195;55.790;37.572;2023-03-16T03:45:44;99329.77;;;5.45;72.53
20228;BME280;12195;55.790;37.572;2023-03-16T03:48:17;99331.83;;;5.37;72.80
20228;BME280;12195;55.790;37.572;2023-03-16T03:50:50;99329.48;;;5.31;73.49
20228;BME280;12195;55.790;37.572;2023-03-16T03:53:33;99325.30;;;5.27;73.82
20228;BME280;12195;55.790;37.572;2023-03-16T03:56:07;99333.22;;;5.24;74.11
20228;BME280;12195;55.790;37.572;2023-03-16T03:58:39;99336.80;;;5.21;73.87
20228;BME280;12195;55.790;37.572;2023-03-16T04:01:13;99343.80;;;5.19;74.67
20228;BME280;12195;55.790;37.572;2023-03-16T04:03:45;99337.77;;;5.19;74.66
20228;BME280;12195;55.790;37.572;2023-03-16T04:06:18;99341.39;;;5.15;74.70
20228;BME280;12195;55.790;37.572;2023-03-16T04:08:52;99343.91;;;5.16;74.95
20228;BME280;12195;55.790;37.572;2023-03-16T04:11:26;99347.42;;;5.15;74.86
20228;BME280;12195;55.790;37.572;2023-03-16T04:13:58;99349.11;;;5.16;74.46
20228;BME280;12195;55.790;37.572;2023-03-16T04:16:31;99352.57;;;5.17;74.61
20228;BME280;12195;55.790;37.572;2023-03-16T04:19:04;99349.80;;;5.21;74.71
20228;BME280;12195;55.790;37.572;2023-03-16T04:21:36;99338.53;;;5.21;75.02
20228;BME280;12195;55.790;37.572;2023-03-16T04:24:08;99334.96;;;5.23;74.88
20228;BME280;12195;55.790;37.572;2023-03-16T04:26:43;99327.96;;;5.25;74.69
20228;BME280;12195;55.790;37.572;2023-03-16T04:29:16;99341.74;;;5.27;74.74
20228;BME280;12195;55.790;37.572;2023-03-16T04:31:49;99337.28;;;5.31;74.23
20228;BME280;12195;55.790;37.572;2023-03-16T04:34:23;99346.78;;;5.32;74.39
20228;BME280;12195;55.790;37.572;2023-03-16T04:36:57;99340.72;;;5.31;74.72
20228;BME280;12195;55.790;37.572;2023-03-16T04:39:29;99343.26;;;5.33;74.38
20228;BME280;12195;55.790;37.572;2023-03-16T04:42:02;99350.95;;;5.36;74.24
20228;BME280;12195;55.790;37.572;2023-03-16T04:44:35;99350.09;;;5.35;74.00
20228;BME280;12195;55.790;37.572;2023-03-16T04:47:10;99353.41;;;5.39;74.33
20228;BME280;12195;55.790;37.572;2023-03-16T04:49:43;99349.02;;;5.41;74.27
20228;BME280;12195;55.790;37.572;2023-03-16T04:52:16;99354.94;;;5.44;74.25
20228;BME280;12195;55.790;37.572;2023-03-16T04:54:49;99364.52;;;5.44;73.87
20228;BME280;12195;55.790;37.572;2023-03-16T04:57:22;99368.87;;;5.43;73.51
20228;BME280;12195;55.790;37.572;2023-03-16T04:59:56;99368.00;;;5.43;73.49
20228;BME280;12195;55.790;37.572;2023-03-16T05:02:31;99371.41;;;5.45;73.83
20228;BME280;12195;55.790;37.572;2023-03-16T05:05:06;99374.94;;;5.44;73.74
20228;BME280;12195;55.790;37.572;2023-03-16T05:07:41;99369.67;;;5.45;73.53
20228;BME280;12195;55.790;37.572;2023-03-16T05:10:14;99384.32;;;5.48;73.58
20228;BME280;12195;55.790;37.572;2023-03-16T05:12:49;99385.32;;;5.65;73.89
20228;BME280;12195;55.790;37.572;2023-03-16T05:15:28;99388.44;;;5.53;73.40
20228;BME280;12195;55.790;37.572;2023-03-16T05:18:01;99390.19;;;5.53;73.55
20228;BME280;12195;55.790;37.572;2023-03-16T05:20:33;99395.51;;;5.71;73.88
20228;BME280;12195;55.790;37.572;2023-03-16T05:23:06;99382.97;;;5.59;73.65
20228;BME280;12195;55.790;37.572;2023-03-16T05:25:40;99379.40;;;5.62;73.35
20228;BME280;12195;55.790;37.572;2023-03-16T05:28:15;99388.02;;;5.64;73.56
20228;BME280;12195;55.790;37.572;2023-03-16T05:30:50;99398.43;;;5.64;73.26
20228;BME280;12195;55.790;37.572;2023-03-16T05:33:24;99390.53;;;5.65;73.18
20228;BME280;12195;55.790;37.572;2023-03-16T05:35:58;99397.31;;;5.69;73.43
20228;BME280;12195;55.790;37.572;2023-03-16T05:38:34;99373.48;;;5.58;73.07
20228;BME280;12195;55.790;37.572;2023-03-16T05:41:07;99400.60;;;5.74;73.10
20228;BME280;12195;55.790;37.572;2023-03-16T05:43:54;99398.77;;;5.76;73.08
20228;BME280;12195;55.790;37.572;2023-03-16T05:46:28;99387.30;;;5.82;73.03
20228;BME280;12195;55.790;37.572;2023-03-16T05:49:02;99383.66;;;5.86;73.05
20228;BME280;12195;55.790;37.572;2023-03-16T05:51:34;99380.02;;;5.90;72.80
20228;BME280;12195;55.790;37.572;2023-03-16T05:54:20;99380.55;;;5.98;72.40
20228;BME280;12195;55.790;37.572;2023-03-16T05:56:53;99388.04;;;6.06;72.35
20228;BME280;12195;55.790;37.572;2023-03-16T05:59:26;99389.60;;;6.10;72.37
20228;BME280;12195;55.790;37.572;2023-03-16T06:01:59;99394.64;;;6.14;72.09
20228;BME280;12195;55.790;37.572;2023-03-16T06:04:31;99399.79;;;6.16;71.93
20228;BME280;12195;55.790;37.572;2023-03-16T06:07:04;99396.14;;;6.20;71.90
20228;BME280;12195;55.790;37.572;2023-03-16T06:09:37;99390.72;;;6.24;72.40
20228;BME280;12195;55.790;37.572;2023-03-16T06:12:10;99390.48;;;6.30;72.13
20228;BME280;12195;55.790;37.572;2023-03-16T06:14:44;99386.30;;;6.46;71.63
20228;BME280;12195;55.790;37.572;2023-03-16T06:17:18;99380.80;;;6.52;71.22
20228;BME280;12195;55.790;37.572;2023-03-16T06:19:51;99394.95;;;6.47;70.66
20228;BME280;12195;55.790;37.572;2023-03-16T06:22:23;99397.25;;;6.34;70.25
20228;BME280;12195;55.790;37.572;2023-03-16T06:24:55;99402.83;;;6.25;70.79
20228;BME280;12195;55.790;37.572;2023-03-16T06:27:28;99405.77;;;6.18;71.56
20228;BME280;12195;55.790;37.572;2023-03-16T06:30:02;99415.48;;;6.14;71.61
20228;BME280;12195;55.790;37.572;2023-03-16T06:32:35;99424.34;;;6.10;72.00
20228;BME280;12195;55.790;37.572;2023-03-16T06:35:09;99421.08;;;6.05;72.14
20228;BME280;12195;55.790;37.572;2023-03-16T06:37:42;99422.89;;;6.03;72.88
20228;BME280;12195;55.790;37.572;2023-03-16T06:40:24;99422.12;;;6.21;72.05
20228;BME280;12195;55.790;37.572;2023-03-16T06:42:58;99429.02;;;6.02;72.15
20228;BME280;12195;55.790;37.572;2023-03-16T06:45:31;99426.64;;;5.96;72.38
20228;BME280;12195;55.790;37.572;2023-03-16T06:48:04;99423.33;;;5.93;72.92
20228;BME280;12195;55.790;37.572;2023-03-16T06:50:38;99421.52;;;5.95;73.22
20228;BME280;12195;55.790;37.572;2023-03-16T06:53:11;99415.25;;;5.99;73.19
20228;BME280;12195;55.790;37.572;2023-03-16T06:55:44;99418.33;;;6.08;73.74
20228;BME280;12195;55.790;37.572;2023-03-16T06:58:17;99410.16;;;6.17;73.44
20228;BME280;12195;55.790;37.572;2023-03-16T07:00:49;99416.66;;;6.27;73.25
20228;BME280;12195;55.790;37.572;2023-03-16T07:03:24;99414.47;;;6.38;73.20
20228;BME280;12195;55.790;37.572;2023-03-16T07:05:57;99415.81;;;6.47;72.28
20228;BME280;12195;55.790;37.572;2023-03-16T07:08:30;99418.12;;;6.54;72.24
20228;BME280;12195;55.790;37.572;2023-03-16T07:11:03;99423.11;;;6.59;71.96
20228;BME280;12195;55.790;37.572;2023-03-16T07:13:36;99409.88;;;6.63;72.08
20228;BME280;12195;55.790;37.572;2023-03-16T07:16:08;99403.62;;;6.67;71.54
20228;BME280;12195;55.790;37.572;2023-03-16T07:18:40;99409.19;;;6.78;71.93
20228;BME280;12195;55.790;37.572;2023-03-16T07:21:16;99412.06;;;6.92;71.72
20228;BME280;12195;55.790;37.572;2023-03-16T07:23:49;99422.78;;;7.05;71.14
20228;BME280;12195;55.790;37.572;2023-03-16T07:26:23;99423.08;;;7.17;71.13
20228;BME280;12195;55.790;37.572;2023-03-16T07:28:58;99414.69;;;7.29;70.75
20228;BME280;12195;55.790;37.572;2023-03-16T07:31:32;99419.35;;;7.41;70.27
20228;BME280;12195;55.790;37.572;2023-03-16T07:34:07;99418.98;;;7.49;69.60
20228;BME280;12195;55.790;37.572;2023-03-16T07:36:41;99411.84;;;7.52;69.59
20228;BME280;12195;55.790;37.572;2023-03-16T07:39:14;99410.88;;;7.55;69.30
20228;BME280;12195;55.790;37.572;2023-03-16T07:41:48;99409.88;;;7.57;68.66
20228;BME280;12195;55.790;37.572;2023-03-16T07:44:23;99406.13;;;7.63;68.29
20228;BME280;12195;55.790;37.572;2023-03-16T07:46:56;99396.23;;;7.69;68.40
20228;BME280;12195;55.790;37.572;2023-03-16T07:49:30;99406.52;;;7.72;68.57
20228;BME280;12195;55.790;37.572;2023-03-16T07:52:02;99404.24;;;7.83;69.23
20228;BME280;12195;55.790;37.572;2023-03-16T07:54:36;99402.31;;;7.87;67.49
20228;BME280;12195;55.790;37.572;2023-03-16T07:57:10;99395.67;;;8.15;68.60
20228;BME280;12195;55.790;37.572;2023-03-16T07:59:45;99391.13;;;8.02;67.27
20228;BME280;12195;55.790;37.572;2023-03-16T08:02:20;99384.89;;;8.04;66.71
20228;BME280;12195;55.790;37.572;2023-03-16T08:04:53;99389.91;;;8.09;65.36
20228;BME280;12195;55.790;37.572;2023-03-16T08:07:26;99386.90;;;8.16;65.59
20228;BME280;12195;55.790;37.572;2023-03-16T08:10:00;99382.67;;;8.14;65.34
20228;BME280;12195;55.790;37.572;2023-03-16T08:12:38;99389.66;;;8.13;65.90
20228;BME280;12195;55.790;37.572;2023-03-16T08:15:11;99393.98;;;8.14;66.32
20228;BME280;12195;55.790;37.572;2023-03-16T08:17:43;99390.45;;;8.15;65.84
20228;BME280;12195;55.790;37.572;2023-03-16T08:20:17;99395.67;;;8.15;65.62
20228;BME280;12195;55.790;37.572;2023-03-16T08:22:49;99408.31;;;8.41;65.96
20228;BME280;12195;55.790;37.572;2023-03-16T08:25:23;99410.28;;;8.02;65.37
20228;BME280;12195;55.790;37.572;2023-03-16T08:28:00;99407.81;;;8.16;65.77
20228;BME280;12195;55.790;37.572;2023-03-16T08:30:34;99412.47;;;7.76;65.65
20228;BME280;12195;55.790;37.572;2023-03-16T08:33:10;99405.41;;;7.59;66.11
20228;BME280;12195;55.790;37.572;2023-03-16T08:35:42;99408.33;;;7.53;68.10
20228;BME280;12195;55.790;37.572;2023-03-16T08:38:18;99408.40;;;7.52;68.18
20228;BME280;12195;55.790;37.572;2023-03-16T08:40:51;99415.31;;;7.53;68.16
20228;BME280;12195;55.790;37.572;2023-03-16T08:43:24;99399.43;;;7.57;67.63
20228;BME280;12195;55.790;37.572;2023-03-16T08:45:59;99400.74;;;7.66;68.31
20228;BME280;12195;55.790;37.572;2023-03-16T08:48:33;99404.83;;;7.71;68.31
20228;BME280;12195;55.790;37.572;2023-03-16T08:51:07;99411.47;;;7.78;68.32
20228;BME280;12195;55.790;37.572;2023-03-16T08:53:40;99406.92;;;7.82;68.48
20228;BME280;12195;55.790;37.572;2023-03-16T08:56:13;99411.09;;;7.86;68.13
20228;BME280;12195;55.790;37.572;2023-03-16T08:58:46;99411.88;;;7.88;68.47
20228;BME280;12195;55.790;37.572;2023-03-16T09:01:20;99414.11;;;7.95;68.55
20228;BME280;12195;55.790;37.572;2023-03-16T09:03:52;99411.42;;;7.97;68.22
20228;BME280;12195;55.790;37.572;2023-03-16T09:06:25;99419.48;;;7.92;67.65
20228;BME280;12195;55.790;37.572;2023-03-16T09:08:57;99418.45;;;7.78;67.55
20228;BME280;12195;55.790;37.572;2023-03-16T09:11:30;99408.51;;;7.67;68.05
20228;BME280;12195;55.790;37.572;2023-03-16T09:14:03;99413.39;;;7.56;68.16
20228;BME280;12195;55.790;37.572;2023-03-16T09:16:37;99414.38;;;7.54;68.83
20228;BME280;12195;55.790;37.572;2023-03-16T09:19:09;99417.86;;;7.54;68.83
20228;BME280;12195;55.790;37.572;2023-03-16T09:21:41;99415.03;;;7.59;69.47
20228;BME280;12195;55.790;37.572;2023-03-16T09:24:16;99408.51;;;7.67;69.56
20228;BME280;12195;55.790;37.572;2023-03-16T09:26:48;99408.06;;;7.76;69.03
20228;BME280;12195;55.790;37.572;2023-03-16T09:29:21;99414.70;;;7.83;68.95
20228;BME280;12195;55.790;37.572;2023-03-16T09:31:53;99411.88;;;7.88;68.48
20228;BME280;12195;55.790;37.572;2023-03-16T09:34:26;99408.41;;;7.87;67.80
20228;BME280;12195;55.790;37.572;2023-03-16T09:37:00;99412.77;;;7.87;67.99
20228;BME280;12195;55.790;37.572;2023-03-16T09:39:33;99412.70;;;7.88;67.85
20228;BME280;12195;55.790;37.572;2023-03-16T09:42:21;99409.40;;;7.85;68.13
20228;BME280;12195;55.790;37.572;2023-03-16T09:45:03;99404.10;;;7.86;68.31
20228;BME280;12195;55.790;37.572;2023-03-16T09:47:34;99405.65;;;7.90;68.02
20228;BME280;12195;55.790;37.572;2023-03-16T09:50:14;99412.35;;;7.96;68.89
20228;BME280;12195;55.790;37.572;2023-03-16T09:52:57;99397.42;;;7.98;69.55
20228;BME280;12195;55.790;37.572;2023-03-16T09:55:33;99393.52;;;8.06;69.40
20228;BME280;12195;55.790;37.572;2023-03-16T09:58:16;99400.97;;;8.14;68.18
20228;BME280;12195;55.790;37.572;2023-03-16T10:06:25;99404.80;;;8.07;67.07
20228;BME280;12195;55.790;37.572;2023-03-16T10:09:29;99412.03;;;8.02;67.38
20228;BME280;12195;55.790;37.572;2023-03-16T10:11:44;99408.73;;;7.98;68.26
20228;BME280;12195;55.790;37.572;2023-03-16T10:14:22;99413.11;;;7.98;68.77
20228;BME280;12195;55.790;37.572;2023-03-16T10:22:23;99423.95;;;7.90;69.29
20228;BME280;12195;55.790;37.572;2023-03-16T10:27:35;99423.60;;;7.79;69.62
20228;BME280;12195;55.790;37.572;2023-03-16T10:30:20;99413.29;;;7.76;69.95
20228;BME280;12195;55.790;37.572;2023-03-16T10:32:52;99418.69;;;7.73;70.14
20228;BME280;12195;55.790;37.572;2023-03-16T10:35:33;99412.73;;;7.70;70.20
20228;BME280;12195;55.790;37.572;2023-03-16T10:38:05;99412.91;;;7.67;70.68
20228;BME280;12195;55.790;37.572;2023-03-16T10:40:38;99417.55;;;7.60;70.16
20228;BME280;12195;55.790;37.572;2023-03-16T10:43:12;99419.41;;;7.58;70.80
20228;BME280;12195;55.790;37.572;2023-03-16T10:45:45;99422.16;;;7.55;70.75
20228;BME280;12195;55.790;37.572;2023-03-16T10:48:20;99424.90;;;7.52;70.33
20228;BME280;12195;55.790;37.572;2023-03-16T10:50:54;99422.59;;;7.46;70.05
20228;BME280;12195;55.790;37.572;2023-03-16T10:53:34;99422.66;;;7.45;70.61
20228;BME280;12195;55.790;37.572;2023-03-16T10:56:23;99425.33;;;7.43;70.46
20228;BME280;12195;55.790;37.572;2023-03-16T10:58:52;99427.19;;;7.41;71.02
20228;BME280;12195;55.790;37.572;2023-03-16T11:01:29;99423.65;;;7.42;71.23
20228;BME280;12195;55.790;37.572;2023-03-16T11:04:02;99418.42;;;7.42;71.58
20228;BME280;12195;55.790;37.572;2023-03-16T11:06:36;99414.75;;;7.46;71.75
20228;BME280;12195;55.790;37.572;2023-03-16T11:09:18;99421.39;;;7.53;71.96
20228;BME280;12195;55.790;37.572;2023-03-16T11:11:49;99419.41;;;7.58;70.78
20228;BME280;12195;55.790;37.572;2023-03-16T11:14:24;99421.81;;;7.63;70.42
20228;BME280;12195;55.790;37.572;2023-03-16T11:16:59;99422.57;;;7.65;70.34
20228;BME280;12195;55.790;37.572;2023-03-16T11:19:36;99430.34;;;7.66;70.41
20228;BME280;12195;55.790;37.572;2023-03-16T11:22:15;99433.09;;;7.63;69.64
20228;BME280;12195;55.790;37.572;2023-03-16T11:25:10;99430.48;;;7.63;70.41
20228;BME280;12195;55.790;37.572;2023-03-16T11:30:50;99421.22;;;7.56;69.56
20228;BME280;12195;55.790;37.572;2023-03-16T11:33:22;99421.33;;;7.55;69.57
20228;BME280;12195;55.790;37.572;2023-03-16T11:39:05;99421.39;;;7.53;70.29
20228;BME280;12195;55.790;37.572;2023-03-16T11:41:41;99432.47;;;7.58;70.87
20228;BME280;12195;55.790;37.572;2023-03-16T11:44:37;99434.09;;;7.61;69.94
20228;BME280;12195;55.790;37.572;2023-03-16T11:49:53;99439.31;;;7.61;70.03
20228;BME280;12195;55.790;37.572;2023-03-16T11:58:45;99449.63;;;7.45;69.73
20228;BME280;12195;55.790;37.572;2023-03-16T12:12:33;99463.93;;;7.18;71.40
20228;BME280;12195;55.790;37.572;2023-03-16T12:15:33;99465.97;;;7.12;71.62
20228;BME280;12195;55.790;37.572;2023-03-16T12:18:12;99472.18;;;7.09;72.19
20228;BME280;12195;55.790;37.572;2023-03-16T12:23:32;99461.92;;;7.05;71.91
20228;BME280;12195;55.790;37.572;2023-03-16T12:26:06;99465.53;;;7.02;71.63
20228;BME280;12195;55.790;37.572;2023-03-16T12:28:40;99456.87;;;7.02;71.33
20228;BME280;12195;55.790;37.572;2023-03-16T12:36:45;99459.48;;;7.02;71.65
20228;BME280;12195;55.790;37.572;2023-03-16T12:39:27;99476.13;;;6.99;70.96
20228;BME280;12195;55.790;37.572;2023-03-16T12:50:06;99477.48;;;6.88;70.81
20228;BME280;12195;55.790;37.572;2023-03-16T12:52:44;99481.14;;;6.84;70.77
20228;BME280;12195;55.790;37.572;2023-03-16T12:55:19;99492.56;;;6.81;71.21
20228;BME280;12195;55.790;37.572;2023-03-16T12:58:00;99488.20;;;6.82;71.98
20228;BME280;12195;55.790;37.572;2023-03-16T13:00:35;99489.13;;;6.81;73.02
20228;BME280;12195;55.790;37.572;2023-03-16T13:03:19;99495.17;;;6.81;72.81
20228;BME280;12195;55.790;37.572;2023-03-16T13:05:53;99491.86;;;6.78;72.45
20228;BME280;12195;55.790;37.572;2023-03-16T13:08:26;99492.89;;;6.74;72.74
20228;BME280;12195;55.790;37.572;2023-03-16T13:11:10;99501.70;;;6.71;73.04
20228;BME280;12195;55.790;37.572;2023-03-16T13:13:48;99494.92;;;6.67;73.07
20228;BME280;12195;55.790;37.572;2023-03-16T13:16:21;99493.30;;;6.65;73.07
20228;BME280;12195;55.790;37.572;2023-03-16T13:18:45;99498.57;;;6.63;73.54
20228;BME280;12195;55.790;37.572;2023-03-16T13:21:38;99496.02;;;6.62;73.63
20228;BME280;12195;55.790;37.572;2023-03-16T13:27:10;99494.39;;;6.59;74.22
20228;BME280;12195;55.790;37.572;2023-03-16T13:29:33;99481.48;;;6.56;73.91
20228;BME280;12195;55.790;37.572;2023-03-16T13:32:13;99488.53;;;6.54;74.04
20228;BME280;12195;55.790;37.572;2023-03-16T13:34:47;99493.81;;;6.53;74.30
20228;BME280;12195;55.790;37.572;2023-03-16T13:37:20;99492.02;;;6.53;74.76
20228;BME280;12195;55.790;37.572;2023-03-16T13:39:54;99489.30;;;6.56;74.89
20228;BME280;12195;55.790;37.572;2023-03-16T13:42:30;99493.42;;;6.82;74.44
20228;BME280;12195;55.790;37.572;2023-03-16T13:45:18;99493.36;;;6.63;74.26
20228;BME280;12195;55.790;37.572;2023-03-16T13:47:44;99484.67;;;6.63;74.45
20228;BME280;12195;55.790;37.572;2023-03-16T13:50:19;99480.49;;;6.59;74.11
20228;BME280;12195;55.790;37.572;2023-03-16T13:52:59;99485.83;;;6.56;74.17
20228;BME280;12195;55.790;37.572;2023-03-16T13:55:34;99493.86;;;6.51;74.18
20228;BME280;12195;55.790;37.572;2023-03-16T13:58:04;99499.31;;;6.45;74.44
20228;BME280;12195;55.790;37.572;2023-03-16T14:00:36;99486.55;;;6.39;74.78
20228;BME280;12195;55.790;37.572;2023-03-16T14:03:17;99494.61;;;6.33;74.58
20228;BME280;12195;55.790;37.572;2023-03-16T14:05:49;99491.34;;;6.28;74.78
20228;BME280;12195;55.790;37.572;2023-03-16T14:08:23;99495.05;;;6.23;75.00
20228;BME280;12195;55.790;37.572;2023-03-16T14:10:57;99498.99;;;6.33;75.25
20228;BME280;12195;55.790;37.572;2023-03-16T14:13:33;99491.17;;;6.33;75.92
20228;BME280;12195;55.790;37.572;2023-03-16T14:18:50;99503.13;;;6.17;76.57
20228;BME280;12195;55.790;37.572;2023-03-16T14:21:24;99493.73;;;6.13;76.89
20228;BME280;12195;55.790;37.572;2023-03-16T14:24:12;99485.97;;;6.11;77.43
20228;BME280;12195;55.790;37.572;2023-03-16T14:26:46;99486.95;;;6.09;77.72
20228;BME280;12195;55.790;37.572;2023-03-16T14:29:29;99489.55;;;6.09;77.71
20228;BME280;12195;55.790;37.572;2023-03-16T14:32:12;99482.66;;;6.08;78.24
20228;BME280;12195;55.790;37.572;2023-03-16T14:34:37;99487.12;;;6.04;77.47
20228;BME280;12195;55.790;37.572;2023-03-16T14:37:13;99496.83;;;6.01;78.11
20228;BME280;12195;55.790;37.572;2023-03-16T14:39:59;99501.17;;;6.00;78.04
20228;BME280;12195;55.790;37.572;2023-03-16T14:42:32;99495.25;;;5.97;77.88
20228;BME280;12195;55.790;37.572;2023-03-16T14:45:10;99501.38;;;5.96;77.22
20228;BME280;12195;55.790;37.572;2023-03-16T14:47:46;99511.86;;;5.94;77.11